sensor_id;sensor_type;location;lat;lon;timestamp;pressure;altitude;pressure_sealevel;temperature;humidity
26823;BME280;14852;51.910;8.878;2023-03-14T00:02:10;97265.75;;;14.33;55.15
26823;BME280;14852;51.910;8.878;2023-03-14T00:04:36;97271.66;;;14.35;54.94
26823;BME280;14852;51.910;8.878;2023-03-14T00:07:03;97277.69;;;14.36;54.85
26823;BME280;14852;51.910;8.878;2023-03-14T00:09:28;97274.75;;;14.39;54.81
26823;BME280;14852;51.910;8.878;2023-03-14T00:11:56;97283.09;;;14.42;54.83
26823;BME280;14852;51.910;8.878;2023-03-14T00:14:23;97302.03;;;14.44;54.90
26823;BME280;14852;51.910;8.878;2023-03-14T00:16:48;97315.75;;;14.46;54.38
26823;BME280;14852;51.910;8.878;2023-03-14T00:19:14;97316.56;;;14.47;54.60
26823;BME280;14852;51.910;8.878;2023-03-14T00:21:40;97299.91;;;14.48;54.75
26823;BME280;14852;51.910;8.878;2023-03-14T00:24:07;97304.31;;;14.47;54.36
26823;BME280;14852;51.910;8.878;2023-03-14T00:26:33;97314.63;;;14.49;54.68
26823;BME280;14852;51.910;8.878;2023-03-14T00:28:59;97310.22;;;14.49;54.80
26823;BME280;14852;51.910;8.878;2023-03-14T00:31:25;97298.94;;;14.49;54.50
26823;BME280;14852;51.910;8.878;2023-03-14T00:33:52;97306.78;;;14.49;54.59
26823;BME280;14852;51.910;8.878;2023-03-14T00:36:19;97302.53;;;14.48;54.85
26823;BME280;14852;51.910;8.878;2023-03-14T00:38:48;97308.56;;;14.48;54.39
26823;BME280;14852;51.910;8.878;2023-03-14T00:41:17;97314.94;;;14.46;54.46
26823;BME280;14852;51.910;8.878;2023-03-14T00:43:44;97306.78;;;14.41;54.53
26823;BME280;14852;51.910;8.878;2023-03-14T00:46:10;97274.25;;;14.35;54.74
26823;BME280;14852;51.910;8.878;2023-03-14T00:48:37;97258.28;;;14.30;54.52
26823;BME280;14852;51.910;8.878;2023-03-14T00:51:05;97267.41;;;14.26;54.80
26823;BME280;14852;51.910;8.878;2023-03-14T00:53:31;97240.97;;;14.21;55.12
26823;BME280;14852;51.910;8.878;2023-03-14T00:56:04;97236.72;;;14.20;54.69
26823;BME280;14852;51.910;8.878;2023-03-14T00:58:30;97233.63;;;14.17;55.02
26823;BME280;14852;51.910;8.878;2023-03-14T01:00:56;97257.44;;;14.13;54.70
26823;BME280;14852;51.910;8.878;2023-03-14T01:03:22;97273.28;;;14.12;54.88
26823;BME280;14852;51.910;8.878;2023-03-14T01:05:49;97275.88;;;14.12;54.89
26823;BME280;14852;51.910;8.878;2023-03-14T01:08:15;97272.47;;;14.11;54.86
26823;BME280;14852;51.910;8.878;2023-03-14T01:10:41;97289.44;;;14.16;54.66
26823;BME280;14852;51.910;8.878;2023-03-14T01:13:08;97300.38;;;14.19;54.86
26823;BME280;14852;51.910;8.878;2023-03-14T01:15:36;97309.69;;;14.22;54.80
26823;BME280;14852;51.910;8.878;2023-03-14T01:18:03;97288.31;;;14.26;54.50
26823;BME280;14852;51.910;8.878;2023-03-14T01:20:29;97287.78;;;14.31;54.43
26823;BME280;14852;51.910;8.878;2023-03-14T01:22:54;97284.41;;;14.30;54.43
26823;BME280;14852;51.910;8.878;2023-03-14T01:25:20;97279.97;;;14.31;54.86
26823;BME280;14852;51.910;8.878;2023-03-14T01:27:48;97286.00;;;14.31;54.86
26823;BME280;14852;51.910;8.878;2023-03-14T01:30:14;97285.69;;;14.34;54.14
26823;BME280;14852;51.910;8.878;2023-03-14T01:32:40;97247.47;;;14.33;54.42
26823;BME280;14852;51.910;8.878;2023-03-14T01:35:06;97222.34;;;14.32;54.67
26823;BME280;14852;51.910;8.878;2023-03-14T01:37:33;97204.41;;;14.29;54.58
26823;BME280;14852;51.910;8.878;2023-03-14T01:39:59;97217.13;;;14.24;54.48
26823;BME280;14852;51.910;8.878;2023-03-14T01:42:25;97235.72;;;14.21;54.86
26823;BME280;14852;51.910;8.878;2023-03-14T01:44:57;97227.09;;;14.21;54.66
26823;BME280;14852;51.910;8.878;2023-03-14T01:47:24;97237.69;;;14.19;54.70
26823;BME280;14852;51.910;8.878;2023-03-14T01:50:01;97245.38;;;14.21;55.01
26823;BME280;14852;51.910;8.878;2023-03-14T01:52:36;97242.59;;;14.22;54.38
26823;BME280;14852;51.910;8.878;2023-03-14T01:55:07;97241.94;;;14.28;54.33
26823;BME280;14852;51.910;8.878;2023-03-14T01:57:48;97238.34;;;14.29;54.41
26823;BME280;14852;51.910;8.878;2023-03-14T02:00:19;97244.41;;;14.30;54.45
26823;BME280;14852;51.910;8.878;2023-03-14T02:02:51;97238.34;;;14.29;54.53
26823;BME280;14852;51.910;8.878;2023-03-14T02:05:28;97241.59;;;14.31;54.70
26823;BME280;14852;51.910;8.878;2023-03-14T02:08:11;97230.34;;;14.31;54.27
26823;BME280;14852;51.910;8.878;2023-03-14T02:10:54;97210.44;;;14.30;54.19
26823;BME280;14852;51.910;8.878;2023-03-14T02:13:30;97229.53;;;14.30;54.30
26823;BME280;14852;51.910;8.878;2023-03-14T02:16:31;97224.31;;;14.30;54.32
26823;BME280;14852;51.910;8.878;2023-03-14T02:22:42;97203.88;;;14.34;54.12
26823;BME280;14852;51.910;8.878;2023-03-14T02:25:46;97200.47;;;14.33;54.33
26823;BME280;14852;51.910;8.878;2023-03-14T02:28:14;97202.41;;;14.31;54.64
26823;BME280;14852;51.910;8.878;2023-03-14T02:30:43;97206.03;;;14.30;54.32
26823;BME280;14852;51.910;8.878;2023-03-14T02:33:20;97214.50;;;14.32;54.25
26823;BME280;14852;51.910;8.878;2023-03-14T02:36:05;97210.25;;;14.31;54.01
26823;BME280;14852;51.910;8.878;2023-03-14T02:39:00;97202.25;;;14.33;54.02
26823;BME280;14852;51.910;8.878;2023-03-14T02:41:31;97197.03;;;14.33;54.44
26823;BME280;14852;51.910;8.878;2023-03-14T02:44:00;97193.44;;;14.34;53.95
26823;BME280;14852;51.910;8.878;2023-03-14T02:46:27;97199.47;;;14.34;54.28
26823;BME280;14852;51.910;8.878;2023-03-14T02:49:07;97202.91;;;14.35;54.08
26823;BME280;14852;51.910;8.878;2023-03-14T02:51:33;97220.06;;;14.29;54.71
26823;BME280;14852;51.910;8.878;2023-03-14T02:54:00;97234.75;;;14.22;54.59
26823;BME280;14852;51.910;8.878;2023-03-14T02:56:26;97242.47;;;14.07;55.73
26823;BME280;14852;51.910;8.878;2023-03-14T02:58:52;97263.31;;;13.99;55.70
26823;BME280;14852;51.910;8.878;2023-03-14T03:01:26;97257.91;;;13.85;56.25
26823;BME280;14852;51.910;8.878;2023-03-14T03:03:51;97266.41;;;13.70;56.62
26823;BME280;14852;51.910;8.878;2023-03-14T03:06:19;97258.22;;;13.57;56.66
26823;BME280;14852;51.910;8.878;2023-03-14T03:08:45;97263.22;;;13.43;57.73
26823;BME280;14852;51.910;8.878;2023-03-14T03:11:11;97257.78;;;13.28;57.67
26823;BME280;14852;51.910;8.878;2023-03-14T03:13:37;97246.38;;;13.21;57.97
26823;BME280;14852;51.910;8.878;2023-03-14T03:16:05;97236.66;;;13.05;57.83
26823;BME280;14852;51.910;8.878;2023-03-14T03:18:33;97238.72;;;12.93;58.09
26823;BME280;14852;51.910;8.878;2023-03-14T03:21:04;97225.00;;;12.83;57.88
26823;BME280;14852;51.910;8.878;2023-03-14T03:23:30;97225.94;;;12.74;57.98
26823;BME280;14852;51.910;8.878;2023-03-14T03:25:57;97227.97;;;12.62;57.83
26823;BME280;14852;51.910;8.878;2023-03-14T03:28:22;97223.72;;;12.53;58.25
26823;BME280;14852;51.910;8.878;2023-03-14T03:30:50;97216.00;;;12.44;58.36
26823;BME280;14852;51.910;8.878;2023-03-14T03:33:15;97214.00;;;12.38;58.32
26823;BME280;14852;51.910;8.878;2023-03-14T03:35:46;97219.00;;;12.31;58.43
26823;BME280;14852;51.910;8.878;2023-03-14T03:38:13;97210.16;;;12.24;58.23
26823;BME280;14852;51.910;8.878;2023-03-14T03:40:40;97221.88;;;12.20;58.35
26823;BME280;14852;51.910;8.878;2023-03-14T03:43:07;97218.75;;;12.16;58.53
26823;BME280;14852;51.910;8.878;2023-03-14T03:45:36;97217.78;;;12.17;58.24
26823;BME280;14852;51.910;8.878;2023-03-14T03:48:02;97223.78;;;12.18;58.73
26823;BME280;14852;51.910;8.878;2023-03-14T03:50:28;97229.16;;;12.16;58.29
26823;BME280;14852;51.910;8.878;2023-03-14T03:52:54;97209.44;;;12.14;58.46
26823;BME280;14852;51.910;8.878;2023-03-14T03:55:19;97224.88;;;12.07;58.50
26823;BME280;14852;51.910;8.878;2023-03-14T03:57:46;97217.63;;;12.01;58.96
26823;BME280;14852;51.910;8.878;2023-03-14T04:00:12;97220.72;;;11.96;58.91
26823;BME280;14852;51.910;8.878;2023-03-14T04:02:41;97207.31;;;11.91;58.91
26823;BME280;14852;51.910;8.878;2023-03-14T04:05:09;97216.25;;;11.89;59.08
26823;BME280;14852;51.910;8.878;2023-03-14T04:07:37;97212.03;;;11.88;58.75
26823;BME280;14852;51.910;8.878;2023-03-14T04:10:04;97219.66;;;11.89;58.86
26823;BME280;14852;51.910;8.878;2023-03-14T04:12:37;97215.81;;;11.93;58.90
26823;BME280;14852;51.910;8.878;2023-03-14T04:15:10;97226.72;;;11.97;58.58
26823;BME280;14852;51.910;8.878;2023-03-14T04:17:39;97218.59;;;12.00;58.65
26823;BME280;14852;51.910;8.878;2023-03-14T04:20:07;97210.16;;;11.98;59.19
26823;BME280;14852;51.910;8.878;2023-03-14T04:22:37;97217.00;;;11.99;59.22
26823;BME280;14852;51.910;8.878;2023-03-14T04:25:05;97213.72;;;11.97;59.09
26823;BME280;14852;51.910;8.878;2023-03-14T04:27:35;97196.25;;;11.89;59.15
26823;BME280;14852;51.910;8.878;2023-03-14T04:30:03;97193.44;;;11.83;59.23
26823;BME280;14852;51.910;8.878;2023-03-14T04:32:46;97191.28;;;11.78;59.25
26823;BME280;14852;51.910;8.878;2023-03-14T04:35:13;97179.66;;;11.73;59.47
26823;BME280;14852;51.910;8.878;2023-03-14T04:37:39;97176.69;;;11.68;59.77
26823;BME280;14852;51.910;8.878;2023-03-14T04:40:10;97169.22;;;11.65;59.64
26823;BME280;14852;51.910;8.878;2023-03-14T04:42:36;97175.53;;;11.62;59.64
26823;BME280;14852;51.910;8.878;2023-03-14T04:45:03;97175.81;;;11.59;59.92
26823;BME280;14852;51.910;8.878;2023-03-14T04:47:31;97162.94;;;11.57;59.94
26823;BME280;14852;51.910;8.878;2023-03-14T04:49:57;97155.63;;;11.53;59.99
26823;BME280;14852;51.910;8.878;2023-03-14T04:52:24;97144.84;;;11.48;60.05
26823;BME280;14852;51.910;8.878;2023-03-14T04:54:51;97155.38;;;11.46;59.87
26823;BME280;14852;51.910;8.878;2023-03-14T04:57:18;97151.16;;;11.45;60.13
26823;BME280;14852;51.910;8.878;2023-03-14T04:59:44;97146.91;;;11.44;60.23
26823;BME280;14852;51.910;8.878;2023-03-14T05:02:23;97147.88;;;11.43;60.10
26823;BME280;14852;51.910;8.878;2023-03-14T05:04:59;97145.28;;;11.43;60.01
26823;BME280;14852;51.910;8.878;2023-03-14T05:07:43;97147.22;;;11.41;59.98
26823;BME280;14852;51.910;8.878;2023-03-14T05:10:20;97149.00;;;11.41;60.21
26823;BME280;14852;51.910;8.878;2023-03-14T05:13:06;97147.22;;;11.41;59.88
26823;BME280;14852;51.910;8.878;2023-03-14T05:15:48;97147.56;;;11.46;59.98
26823;BME280;14852;51.910;8.878;2023-03-14T05:18:27;97145.66;;;11.48;60.22
26823;BME280;14852;51.910;8.878;2023-03-14T05:21:11;97150.56;;;11.51;59.74
26823;BME280;14852;51.910;8.878;2023-03-14T05:23:56;97155.16;;;11.57;59.67
26823;BME280;14852;51.910;8.878;2023-03-14T05:26:42;97157.16;;;11.64;59.65
26823;BME280;14852;51.910;8.878;2023-03-14T05:29:28;97154.78;;;11.70;59.58
26823;BME280;14852;51.910;8.878;2023-03-14T05:32:05;97154.63;;;11.72;59.55
26823;BME280;14852;51.910;8.878;2023-03-14T05:34:46;97157.91;;;11.74;59.55
26823;BME280;14852;51.910;8.878;2023-03-14T05:37:30;97158.59;;;11.76;59.58
26823;BME280;14852;51.910;8.878;2023-03-14T05:40:15;97165.78;;;11.82;59.28
26823;BME280;14852;51.910;8.878;2023-03-14T05:42:50;97166.59;;;11.82;59.94
26823;BME280;14852;51.910;8.878;2023-03-14T05:45:41;97160.44;;;11.83;59.86
26823;BME280;14852;51.910;8.878;2023-03-14T05:48:25;97168.91;;;11.85;59.71
26823;BME280;14852;51.910;8.878;2023-03-14T05:51:04;97156.56;;;11.87;60.01
26823;BME280;14852;51.910;8.878;2023-03-14T05:54:02;97156.56;;;11.87;59.98
26823;BME280;14852;51.910;8.878;2023-03-14T05:56:47;97161.25;;;11.84;60.11
26823;BME280;14852;51.910;8.878;2023-03-14T05:59:35;97151.63;;;11.76;60.52
26823;BME280;14852;51.910;8.878;2023-03-14T06:02:12;97156.94;;;11.75;60.44
26823;BME280;14852;51.910;8.878;2023-03-14T06:04:48;97148.19;;;11.76;60.72
26823;BME280;14852;51.910;8.878;2023-03-14T06:07:14;97152.44;;;11.77;60.60
26823;BME280;14852;51.910;8.878;2023-03-14T06:09:40;97153.22;;;11.77;61.00
26823;BME280;14852;51.910;8.878;2023-03-14T06:12:07;97146.22;;;11.78;60.74
26823;BME280;14852;51.910;8.878;2023-03-14T06:14:39;97161.19;;;11.76;61.06
26823;BME280;14852;51.910;8.878;2023-03-14T06:17:05;97157.06;;;11.73;61.01
26823;BME280;14852;51.910;8.878;2023-03-14T06:19:37;97162.13;;;11.75;60.98
26823;BME280;14852;51.910;8.878;2023-03-14T06:22:03;97155.28;;;11.74;61.10
26823;BME280;14852;51.910;8.878;2023-03-14T06:24:30;97153.50;;;11.74;61.14
26823;BME280;14852;51.910;8.878;2023-03-14T06:26:56;97161.69;;;11.79;61.07
26823;BME280;14852;51.910;8.878;2023-03-14T06:29:22;97138.81;;;11.83;60.92
26823;BME280;14852;51.910;8.878;2023-03-14T06:31:48;97155.09;;;11.85;60.79
26823;BME280;14852;51.910;8.878;2023-03-14T06:34:18;97145.16;;;11.88;61.33
26823;BME280;14852;51.910;8.878;2023-03-14T06:36:44;97138.72;;;11.92;60.74
26823;BME280;14852;51.910;8.878;2023-03-14T06:39:09;97149.63;;;11.96;60.99
26823;BME280;14852;51.910;8.878;2023-03-14T06:41:39;97144.13;;;11.99;61.06
26823;BME280;14852;51.910;8.878;2023-03-14T06:44:05;97141.34;;;12.01;60.98
26823;BME280;14852;51.910;8.878;2023-03-14T06:46:32;97128.03;;;12.04;61.26
26823;BME280;14852;51.910;8.878;2023-03-14T06:48:57;97125.16;;;12.07;60.87
26823;BME280;14852;51.910;8.878;2023-03-14T06:51:23;97133.09;;;12.05;61.08
26823;BME280;14852;51.910;8.878;2023-03-14T06:53:49;97116.97;;;12.02;61.67
26823;BME280;14852;51.910;8.878;2023-03-14T06:56:17;97114.22;;;12.03;61.51
26823;BME280;14852;51.910;8.878;2023-03-14T06:58:43;97126.28;;;12.12;61.15
26823;BME280;14852;51.910;8.878;2023-03-14T07:01:25;97134.88;;;12.30;60.77
26823;BME280;14852;51.910;8.878;2023-03-14T07:03:53;97134.41;;;12.35;61.20
26823;BME280;14852;51.910;8.878;2023-03-14T07:06:21;97127.22;;;12.29;60.86
26823;BME280;14852;51.910;8.878;2023-03-14T07:08:47;97144.09;;;12.25;61.45
26823;BME280;14852;51.910;8.878;2023-03-14T07:11:15;97135.81;;;12.21;61.58
26823;BME280;14852;51.910;8.878;2023-03-14T07:13:41;97148.16;;;12.19;61.56
26823;BME280;14852;51.910;8.878;2023-03-14T07:16:08;97145.56;;;12.19;61.16
26823;BME280;14852;51.910;8.878;2023-03-14T07:18:35;97137.91;;;12.18;61.22
26823;BME280;14852;51.910;8.878;2023-03-14T07:21:05;97147.63;;;12.16;61.66
26823;BME280;14852;51.910;8.878;2023-03-14T07:23:32;97155.59;;;12.14;61.92
26823;BME280;14852;51.910;8.878;2023-03-14T07:25:58;97143.25;;;12.16;61.68
26823;BME280;14852;51.910;8.878;2023-03-14T07:28:26;97141.16;;;12.20;61.66
26823;BME280;14852;51.910;8.878;2023-03-14T07:30:58;97137.59;;;12.21;61.53
26823;BME280;14852;51.910;8.878;2023-03-14T07:33:29;97140.06;;;12.22;61.64
26823;BME280;14852;51.910;8.878;2023-03-14T07:35:55;97151.28;;;12.23;61.67
26823;BME280;14852;51.910;8.878;2023-03-14T07:38:22;97143.81;;;12.28;61.38
26823;BME280;14852;51.910;8.878;2023-03-14T07:41:09;97143.66;;;12.29;61.94
26823;BME280;14852;51.910;8.878;2023-03-14T07:43:40;97151.97;;;12.33;61.57
26823;BME280;14852;51.910;8.878;2023-03-14T07:46:06;97145.84;;;12.42;61.83
26823;BME280;14852;51.910;8.878;2023-03-14T07:48:32;97143.94;;;12.52;61.55
26823;BME280;14852;51.910;8.878;2023-03-14T07:50:58;97144.13;;;12.59;61.22
26823;BME280;14852;51.910;8.878;2023-03-14T07:53:24;97137.81;;;12.69;61.19
26823;BME280;14852;51.910;8.878;2023-03-14T07:55:52;97142.56;;;12.74;61.45
26823;BME280;14852;51.910;8.878;2023-03-14T07:58:18;97132.94;;;12.75;61.38
26823;BME280;14852;51.910;8.878;2023-03-14T08:00:45;97135.25;;;12.78;61.23
26823;BME280;14852;51.910;8.878;2023-03-14T08:03:10;97142.63;;;12.90;61.28
26823;BME280;14852;51.910;8.878;2023-03-14T08:05:37;97134.16;;;13.04;61.31
26823;BME280;14852;51.910;8.878;2023-03-14T08:08:04;97136.44;;;12.99;61.16
26823;BME280;14852;51.910;8.878;2023-03-14T08:10:31;97133.03;;;12.99;61.29
26823;BME280;14852;51.910;8.878;2023-03-14T08:12:59;97142.66;;;13.06;61.30
26823;BME280;14852;51.910;8.878;2023-03-14T08:15:26;97137.28;;;13.08;61.45
26823;BME280;14852;51.910;8.878;2023-03-14T08:17:53;97138.75;;;13.11;61.45
26823;BME280;14852;51.910;8.878;2023-03-14T08:20:23;97143.34;;;13.17;61.34
26823;BME280;14852;51.910;8.878;2023-03-14T08:22:49;97142.88;;;13.29;61.48
26823;BME280;14852;51.910;8.878;2023-03-14T08:25:16;97139.97;;;13.40;61.18
26823;BME280;14852;51.910;8.878;2023-03-14T08:27:42;97139.00;;;13.41;61.08
26823;BME280;14852;51.910;8.878;2023-03-14T08:30:11;97139.81;;;13.50;60.78
26823;BME280;14852;51.910;8.878;2023-03-14T08:32:38;97135.59;;;13.57;60.88
26823;BME280;14852;51.910;8.878;2023-03-14T08:35:05;97127.75;;;13.57;60.98
26823;BME280;14852;51.910;8.878;2023-03-14T08:37:33;97146.50;;;13.69;60.90
26823;BME280;14852;51.910;8.878;2023-03-14T08:39:59;97136.25;;;13.67;60.65
26823;BME280;14852;51.910;8.878;2023-03-14T08:42:25;97135.28;;;13.60;60.85
26823;BME280;14852;51.910;8.878;2023-03-14T08:44:52;97140.13;;;13.63;60.73
26823;BME280;14852;51.910;8.878;2023-03-14T08:47:18;97146.69;;;13.67;60.96
26823;BME280;14852;51.910;8.878;2023-03-14T08:49:44;97147.97;;;13.63;61.17
26823;BME280;14852;51.910;8.878;2023-03-14T08:52:10;97155.31;;;13.68;60.87
26823;BME280;14852;51.910;8.878;2023-03-14T08:54:36;97139.19;;;13.72;61.13
26823;BME280;14852;51.910;8.878;2023-03-14T08:57:02;97152.72;;;13.68;61.24
26823;BME280;14852;51.910;8.878;2023-03-14T08:59:27;97163.16;;;13.68;61.42
26823;BME280;14852;51.910;8.878;2023-03-14T09:01:53;97161.19;;;13.70;61.24
26823;BME280;14852;51.910;8.878;2023-03-14T09:04:20;97162.34;;;13.67;60.98
26823;BME280;14852;51.910;8.878;2023-03-14T09:06:46;97162.16;;;13.69;61.58
26823;BME280;14852;51.910;8.878;2023-03-14T09:09:12;97158.75;;;13.68;61.02
26823;BME280;14852;51.910;8.878;2023-03-14T09:11:39;97165.59;;;13.77;61.48
26823;BME280;14852;51.910;8.878;2023-03-14T09:14:05;97159.53;;;13.85;61.07
26823;BME280;14852;51.910;8.878;2023-03-14T09:16:31;97158.22;;;13.97;61.15
26823;BME280;14852;51.910;8.878;2023-03-14T09:18:58;97151.06;;;13.99;60.94
26823;BME280;14852;51.910;8.878;2023-03-14T09:21:26;97147.47;;;14.00;60.86
26823;BME280;14852;51.910;8.878;2023-03-14T09:23:52;97156.59;;;13.96;61.14
26823;BME280;14852;51.910;8.878;2023-03-14T09:26:19;97155.97;;;13.94;61.48
26823;BME280;14852;51.910;8.878;2023-03-14T09:28:44;97162.81;;;13.95;60.94
26823;BME280;14852;51.910;8.878;2023-03-14T09:31:12;97161.84;;;14.04;61.30
26823;BME280;14852;51.910;8.878;2023-03-14T09:33:38;97167.69;;;14.14;60.78
26823;BME280;14852;51.910;8.878;2023-03-14T09:36:06;97161.16;;;14.19;60.55
26823;BME280;14852;51.910;8.878;2023-03-14T09:38:32;97146.59;;;14.32;60.37
26823;BME280;14852;51.910;8.878;2023-03-14T09:41:01;97150.88;;;14.41;60.68
26823;BME280;14852;51.910;8.878;2023-03-14T09:43:30;97150.00;;;14.49;60.43
26823;BME280;14852;51.910;8.878;2023-03-14T09:45:58;97150.00;;;14.49;60.12
26823;BME280;14852;51.910;8.878;2023-03-14T09:48:32;97164.19;;;14.55;60.63
26823;BME280;14852;51.910;8.878;2023-03-14T09:51:03;97159.44;;;14.58;60.27
26823;BME280;14852;51.910;8.878;2023-03-14T09:53:45;97161.69;;;14.69;60.17
26823;BME280;14852;51.910;8.878;2023-03-14T09:56:32;97172.31;;;14.68;59.84
26823;BME280;14852;51.910;8.878;2023-03-14T09:59:01;97163.38;;;14.62;60.04
26823;BME280;14852;51.910;8.878;2023-03-14T10:01:31;97162.38;;;14.55;60.19
26823;BME280;14852;51.910;8.878;2023-03-14T10:04:12;97165.00;;;14.55;60.30
26823;BME280;14852;51.910;8.878;2023-03-14T10:06:39;97161.41;;;14.56;60.34
26823;BME280;14852;51.910;8.878;2023-03-14T10:09:05;97173.81;;;14.54;60.70
26823;BME280;14852;51.910;8.878;2023-03-14T10:11:31;97167.44;;;14.57;60.16
26823;BME280;14852;51.910;8.878;2023-03-14T10:14:07;97161.56;;;14.55;60.95
26823;BME280;14852;51.910;8.878;2023-03-14T10:16:45;97163.81;;;14.66;60.11
26823;BME280;14852;51.910;8.878;2023-03-14T10:19:15;97157.13;;;14.71;60.30
26823;BME280;14852;51.910;8.878;2023-03-14T10:21:44;97153.69;;;14.71;60.60
26823;BME280;14852;51.910;8.878;2023-03-14T10:24:25;97158.75;;;14.72;60.31
26823;BME280;14852;51.910;8.878;2023-03-14T10:29:29;97165.41;;;14.83;60.20
26823;BME280;14852;51.910;8.878;2023-03-14T10:32:06;97155.59;;;14.85;60.23
26823;BME280;14852;51.910;8.878;2023-03-14T10:34:37;97165.75;;;14.80;60.81
26823;BME280;14852;51.910;8.878;2023-03-14T10:37:27;97168.19;;;14.81;60.74
26823;BME280;14852;51.910;8.878;2023-03-14T10:39:56;97172.75;;;14.79;60.85
26823;BME280;14852;51.910;8.878;2023-03-14T10:42:41;97166.88;;;14.85;60.78
26823;BME280;14852;51.910;8.878;2023-03-14T10:45:38;97162.53;;;15.01;60.18
26823;BME280;14852;51.910;8.878;2023-03-14T10:48:36;97160.34;;;15.12;60.22
26823;BME280;14852;51.910;8.878;2023-03-14T10:53:48;97183.44;;;15.01;60.02
26823;BME280;14852;51.910;8.878;2023-03-14T10:56:19;97188.81;;;14.76;60.58
26823;BME280;14852;51.910;8.878;2023-03-14T10:58:49;97207.97;;;14.61;60.85
26823;BME280;14852;51.910;8.878;2023-03-14T11:01:37;97228.22;;;14.51;60.92
26823;BME280;14852;51.910;8.878;2023-03-14T11:04:51;97236.88;;;14.35;61.57
26823;BME280;14852;51.910;8.878;2023-03-14T11:07:43;97239.19;;;14.13;61.35
26823;BME280;14852;51.910;8.878;2023-03-14T11:10:18;97274.09;;;14.04;61.33
26823;BME280;14852;51.910;8.878;2023-03-14T11:13:25;97300.53;;;13.93;61.85
26823;BME280;14852;51.910;8.878;2023-03-14T11:16:34;97305.69;;;13.61;61.71
26823;BME280;14852;51.910;8.878;2023-03-14T11:22:46;97336.50;;;13.23;61.47
26823;BME280;14852;51.910;8.878;2023-03-14T11:28:40;97352.66;;;13.01;61.05
26823;BME280;14852;51.910;8.878;2023-03-14T11:31:28;97386.22;;;12.78;61.26
26823;BME280;14852;51.910;8.878;2023-03-14T11:34:15;97403.88;;;12.49;61.16
26823;BME280;14852;51.910;8.878;2023-03-14T11:36:57;97421.78;;;12.16;61.11
26823;BME280;14852;51.910;8.878;2023-03-14T11:39:34;97453.91;;;11.80;60.63
26823;BME280;14852;51.910;8.878;2023-03-14T11:42:03;97464.91;;;11.54;60.66
26823;BME280;14852;51.910;8.878;2023-03-14T11:44:34;97480.56;;;11.35;60.98
26823;BME280;14852;51.910;8.878;2023-03-14T11:47:13;97501.00;;;11.30;60.79
26823;BME280;14852;51.910;8.878;2023-03-14T11:52:54;97525.75;;;10.86;60.39
26823;BME280;14852;51.910;8.878;2023-03-14T11:55:35;97553.50;;;10.66;60.39
26823;BME280;14852;51.910;8.878;2023-03-14T11:58:19;97583.25;;;10.52;60.18
26823;BME280;14852;51.910;8.878;2023-03-14T12:00:48;97594.41;;;10.34;60.17
26823;BME280;14852;51.910;8.878;2023-03-14T12:06:50;97617.13;;;9.90;60.44
26823;BME280;14852;51.910;8.878;2023-03-14T12:09:21;97632.44;;;9.72;60.46
26823;BME280;14852;51.910;8.878;2023-03-14T12:11:56;97649.00;;;9.60;60.47
26823;BME280;14852;51.910;8.878;2023-03-14T12:14:36;97650.81;;;9.49;60.42
26823;BME280;14852;51.910;8.878;2023-03-14T12:17:18;97674.66;;;9.42;60.34
26823;BME280;14852;51.910;8.878;2023-03-14T12:19:45;97712.38;;;9.35;59.95
26823;BME280;14852;51.910;8.878;2023-03-14T12:22:27;97715.47;;;9.29;59.63
26823;BME280;14852;51.910;8.878;2023-03-14T12:25:06;97736.34;;;9.17;59.77
26823;BME280;14852;51.910;8.878;2023-03-14T12:30:37;97742.47;;;9.16;59.85
26823;BME280;14852;51.910;8.878;2023-03-14T12:35:58;97766.84;;;9.02;59.44
26823;BME280;14852;51.910;8.878;2023-03-14T12:39:10;97779.69;;;9.03;59.38
26823;BME280;14852;51.910;8.878;2023-03-14T12:41:53;97782.16;;;9.05;59.41
26823;BME280;14852;51.910;8.878;2023-03-14T12:49:52;97805.69;;;9.24;58.74
26823;BME280;14852;51.910;8.878;2023-03-14T12:53:07;97811.00;;;9.23;58.85
26823;BME280;14852;51.910;8.878;2023-03-14T12:55:55;97822.53;;;9.30;58.90
26823;BME280;14852;51.910;8.878;2023-03-14T12:58:35;97825.94;;;9.41;58.92
26823;BME280;14852;51.910;8.878;2023-03-14T13:01:04;97837.22;;;9.52;58.58
26823;BME280;14852;51.910;8.878;2023-03-14T13:03:55;97835.56;;;9.62;58.59
26823;BME280;14852;51.910;8.878;2023-03-14T13:06:54;97840.50;;;9.65;58.22
26823;BME280;14852;51.910;8.878;2023-03-14T13:11:53;97848.59;;;9.82;58.03
26823;BME280;14852;51.910;8.878;2023-03-14T13:14:19;97850.47;;;9.92;57.77
26823;BME280;14852;51.910;8.878;2023-03-14T13:16:47;97860.13;;;10.01;58.02
26823;BME280;14852;51.910;8.878;2023-03-14T13:19:22;97863.16;;;10.06;57.80
26823;BME280;14852;51.910;8.878;2023-03-14T13:21:50;97882.97;;;10.07;58.06
26823;BME280;14852;51.910;8.878;2023-03-14T13:24:25;97894.41;;;10.04;58.26
26823;BME280;14852;51.910;8.878;2023-03-14T13:26:55;97885.47;;;9.97;58.12
26823;BME280;14852;51.910;8.878;2023-03-14T13:29:41;97897.28;;;9.90;58.38
26823;BME280;14852;51.910;8.878;2023-03-14T13:32:20;97902.13;;;9.84;58.36
26823;BME280;14852;51.910;8.878;2023-03-14T13:34:46;97896.94;;;9.84;58.72
26823;BME280;14852;51.910;8.878;2023-03-14T13:37:21;97904.13;;;9.91;58.70
26823;BME280;14852;51.910;8.878;2023-03-14T13:39:52;97899.50;;;9.95;58.53
26823;BME280;14852;51.910;8.878;2023-03-14T13:42:25;97917.94;;;9.92;57.94
26823;BME280;14852;51.910;8.878;2023-03-14T13:44:53;97935.13;;;9.81;58.47
26823;BME280;14852;51.910;8.878;2023-03-14T13:47:21;97967.47;;;9.66;58.27
26823;BME280;14852;51.910;8.878;2023-03-14T13:49:49;98001.38;;;9.52;58.44
26823;BME280;14852;51.910;8.878;2023-03-14T13:52:36;97991.72;;;9.32;58.66
26823;BME280;14852;51.910;8.878;2023-03-14T13:55:05;97986.97;;;9.26;59.01
26823;BME280;14852;51.910;8.878;2023-03-14T13:57:53;98000.19;;;9.34;59.22
26823;BME280;14852;51.910;8.878;2023-03-14T14:00:26;97997.84;;;9.42;59.07
26823;BME280;14852;51.910;8.878;2023-03-14T14:02:54;98006.69;;;9.51;58.73
26823;BME280;14852;51.910;8.878;2023-03-14T14:05:22;98009.41;;;9.60;58.35